Smyrna, Pennsylvania
Current Conditions -  °F | °C
As of 6:15 PM on Thursday 27 Nov 2014 (Local Time) from KMQS Reporting Station
Broken Clouds Broken Clouds  
Wind Chill: 26°   Ceiling: 5000
Heat Index: 32°   Visibility: 10mi
Dew Point: 28°   Wind: 6mph
Humidity: 87%   Direction: 280°W
Pressure: 30.07"   Gusts: NA
Location:  39.9118°N, 76.0265°W
Report Text: KMQS 272315Z AUTO 28005KT 10SM BKN050 00/M02 A3007 RMK AO2
Loading
Personal Weather Stations






























Interactive Weather Map New forecast layout! Learn more

10-Day Weather Forecast

Advertisements
Track Severe Weather on mobile